New Rooks County (RCP)
Stockton, KS
Field Elevation: 1999
Lat: 39°20.80N  Long: 99°18.28W
CTAF/Unicom Freq: 122.9000
   
    
Weather Advisories
2017-02-24   21:45 Z
Altimeter 30.01" Hg
Wind 340° @ 13 KT
Gusts 22 KT
Visibility 10 SM
Temperature -1° C (30° F)
Dewpoint -8° C (18° F)
Relative Humidity 58%
Density Altitude --
Condensation Altitude 5,600 feet
Wind Chill: -7° C (19° F)
Wind and Runways
Indicated Runway = 36
Headwind = 12 kt
Crosswind = 4 kt
History
 
 
 
More Info
All DigiWx sites map
NOAA Forecast
 
Airport IQ 5010
(FLV) Sherman Airfield
(K68) Garnett Municipal Airport
 
about DigiWx
 
FAA Disclaimer: The data displayed is for advisory purposes only and is not to be used for flight planning or operations. For official data, please call (not available) to hear the current automated AWOS voice message.
  METAR RCP 242145Z AUTO 34013G22KT VIS 10 SM M01/M08 A3001